METAR Formatted Surface Weather Observation
Issued by NWS

Home | Current Version | Previous Version | Text Only | Print | Product List | Glossary On
Versions: 1 2 3 4 5 6 7 8 9 10 11 12 13 14 15 16 17 18 19 20 21
000
SAUS42 KRAH 281201
MTRNJM
METAR KNJM 281157Z AUTO 00000KT 8SM CLR 11/10 A3013 RMK AO2 SLP205
60000 T01060100 10111 20072 55006 $



USA.gov is the U.S. government's official web portal to all federal, state and local government web resources and services.